Flight Track Log - Related Links

Times and Time Zones

All times are in EDT time to prevent confusion due to time zone crossing. See the EJA982 flight status page for this flight to view local times or setup timezone preferences in your user account.

Time Position Orientation Groundspeed Altitude Reporting Facility
EDT Latitude Longitude Course Direction KTS MPH feet Rate Location/Type
Fri 07:50:49 PM 33.9333 -118.4333 247° West 188 216 1,900  Level Southern California TRACON
Fri 07:51:59 PM 33.9061 -118.5100 247° West 229 264 5,000 2,727 Climbing Los Angeles Center
Fri 07:53:01 PM 33.8631 -118.4633 138° Southeast 244 281 7,900 2,274 Climbing Los Angeles Center
Fri 07:54:03 PM 33.9172 -118.4156 36° Northeast 263 303 9,700 1,776 Climbing Los Angeles Center
Fri 07:55:06 PM 33.9817 -118.3492 40° Northeast 330 380 11,600 2,352 Climbing Los Angeles Center
Fri 07:56:08 PM 34.0356 -118.2547 55° Northeast 340 391 14,600 1,935 Climbing Los Angeles Center
Fri 07:57:10 PM 34.0925 -118.1542 56° Northeast 357 411 15,600 1,403 Climbing Los Angeles Center
Fri 07:58:12 PM 34.1581 -118.0381 56° Northeast 409 471 17,500 1,790 Climbing Los Angeles Center
Fri 07:59:14 PM 34.2367 -117.8975 56° Northeast 420 483 19,300 1,500 Climbing Los Angeles Center
Fri 08:00:16 PM 34.3050 -117.7761 56° Northeast 433 498 20,600 1,210 Climbing Los Angeles Center
Fri 08:01:18 PM 34.3753 -117.6500 56° Northeast 449 517 21,800 1,258 Climbing Los Angeles Center
Fri 08:02:20 PM 34.4494 -117.5122 57° Northeast 461 531 23,200 1,306 Climbing Los Angeles Center
Fri 08:03:22 PM 34.5217 -117.3819 56° Northeast 468 539 24,500 1,306 Climbing Los Angeles Center
Fri 08:04:24 PM 34.5947 -117.2494 56° Northeast 473 544 25,900 1,152 Climbing Los Angeles Center
Fri 08:05:27 PM 34.6744 -117.1192 53° Northeast 481 554 26,900 960 Climbing Los Angeles Center
Fri 08:06:29 PM 34.7847 -116.9706 48° Northeast 494 568 27,900 919 Climbing Los Angeles Center
Fri 08:07:31 PM 34.8772 -116.8439 48° Northeast 502 578 28,800 968 Climbing Los Angeles Center
Fri 08:08:33 PM 34.9714 -116.7142 48° Northeast 512 589 29,900 1,065 Climbing Los Angeles Center
Fri 08:09:35 PM 35.0686 -116.5811 48° Northeast 522 601 31,000 1,258 Climbing Los Angeles Center
Fri 08:10:37 PM 35.1631 -116.4489 49° Northeast 523 602 32,500 1,742 Climbing Los Angeles Center
Fri 08:11:39 PM 35.2794 -116.2892 48° Northeast 524 603 34,600 1,935 Climbing Los Angeles Center
Fri 08:12:41 PM 35.3742 -116.1553 49° Northeast 522 601 36,500 1,790 Climbing Los Angeles Center
Fri 08:13:43 PM 35.4697 -116.0200 49° Northeast 524 603 38,300 2,016 Climbing Los Angeles Center
Fri 08:14:46 PM 35.5769 -115.8747 48° Northeast 516 594 40,700 1,296 Climbing Los Angeles Center
Fri 08:15:48 PM 35.6703 -115.7425 49° Northeast 514 592 41,000 145 Climbing Los Angeles Center
Fri 08:16:50 PM 35.7661 -115.6075 49° Northeast 524 603 41,000  Level Los Angeles Center
Fri 08:17:52 PM 35.8628 -115.4697 49° Northeast 533 613 41,000  Level Los Angeles Center
Fri 08:18:54 PM 35.9797 -115.3036 49° Northeast 539 620 41,000  Level Los Angeles Center
Fri 08:19:56 PM 36.0747 -115.1658 50° Northeast 532 612 41,000  Level Los Angeles Center
Fri 08:20:58 PM 36.1761 -115.0344 46° Northeast 533 613 41,000  Level Los Angeles Center
Fri 08:22:00 PM 36.2803 -114.9044 45° Northeast 535 616 41,000  Level Los Angeles Center
Fri 08:23:02 PM 36.3842 -114.7714 46° Northeast 539 620 41,000  Level Los Angeles Center
Fri 08:24:04 PM 36.5094 -114.6072 46° Northeast 545 627 41,000  Level Los Angeles Center
Fri 08:25:07 PM 36.6128 -114.4728 46° Northeast 542 624 41,000  Level Los Angeles Center
Fri 08:26:09 PM 36.7153 -114.3392 46° Northeast 537 618 41,000  Level Los Angeles Center
Fri 08:27:11 PM 36.8275 -114.2231 40° Northeast 527 606 41,000  Level Los Angeles Center
Fri 08:28:13 PM 36.9528 -114.1303 31° Northeast 521 600 41,000  Level Los Angeles Center
Fri 08:29:15 PM 37.0786 -114.0333 32° Northeast 528 608 41,000  Level Los Angeles Center
Fri 08:30:17 PM 37.2292 -113.9161 32° Northeast 531 611 41,000  Level Los Angeles Center
Fri 08:31:19 PM 37.3483 -113.8236 32° Northeast 531 611 41,000  Level Los Angeles Center
Fri 08:32:21 PM 37.4747 -113.7236 32° Northeast 533 613 41,000  Level Los Angeles Center
Fri 08:33:23 PM 37.5994 -113.6256 32° Northeast 528 608 41,000  Level Los Angeles Center
Fri 08:34:26 PM 37.7239 -113.5272 32° Northeast 524 603 41,000  Level Los Angeles Center
Fri 08:35:28 PM 37.8722 -113.4097 32° Northeast 521 600 41,000  Level Los Angeles Center
Fri 08:36:30 PM 37.9953 -113.3106 32° Northeast 520 598 41,000  Level Los Angeles Center
Fri 08:37:32 PM 38.1194 -113.2100 32° Northeast 524 603 41,000  Level Los Angeles Center
Fri 08:38:34 PM 38.2422 -113.1111 32° Northeast 521 600 41,000  Level Los Angeles Center
Fri 08:39:45 PM 38.3911 -112.9947 31° Northeast 521 600 41,000  Level Salt Lake Center
Fri 08:40:47 PM 38.5217 -112.9236 23° Northeast 513 590 41,000  Level Salt Lake Center
Fri 08:41:48 PM 38.6519 -112.8531 23° Northeast 509 586 41,000  Level Salt Lake Center
Fri 08:42:50 PM 38.7828 -112.7822 23° Northeast 510 587 41,000  Level Salt Lake Center
Fri 08:43:52 PM 38.9139 -112.7117 23° Northeast 511 588 41,000  Level Salt Lake Center
Fri 08:44:53 PM 39.0706 -112.6250 23° Northeast 510 587 41,000  Level Salt Lake Center
Fri 08:45:55 PM 39.2019 -112.5531 23° Northeast 512 589 41,000  Level Salt Lake Center
Fri 08:46:57 PM 39.3392 -112.4897 20° North 510 587 41,000  Level Salt Lake Center
Fri 08:47:58 PM 39.4675 -112.5447 342° North 480 552 41,000  Level Salt Lake Center
Fri 08:49:00 PM 39.5864 -112.6181 335° Northwest 471 542 41,000  Level Salt Lake Center
Fri 08:50:02 PM 39.6994 -112.6889 334° Northwest 469 540 41,000  Level Salt Lake Center
Fri 08:51:03 PM 39.8244 -112.7656 335° Northwest 477 549 41,000  Level Salt Lake Center
Fri 08:52:05 PM 39.9450 -112.8417 334° Northwest 479 551 41,000  Level Salt Lake Center
Fri 08:53:06 PM 40.0661 -112.9167 335° Northwest 482 555 41,000  Level Salt Lake Center
Fri 08:54:08 PM 40.2125 -113.0033 336° Northwest 479 551 41,000  Level Salt Lake Center
Fri 08:55:10 PM 40.3347 -113.0614 340° North 469 540 41,000  Level Salt Lake Center
Fri 08:56:11 PM 40.4589 -113.1222 340° North 474 545 41,000  Level Salt Lake Center
Fri 08:57:13 PM 40.5833 -113.1853 339° North 476 548 41,000  Level Salt Lake Center
Fri 08:58:14 PM 40.7083 -113.2481 339° North 479 551 41,000  Level Salt Lake Center
Fri 08:59:17 PM 40.8319 -113.3100 339° North 476 548 41,000  Level Salt Lake Center
Fri 09:00:18 PM 40.9561 -113.3739 339° North 477 549 41,000  Level Salt Lake Center
Fri 09:01:19 PM 41.0811 -113.4406 338° Northwest 480 552 41,000  Level Salt Lake Center
Fri 09:02:21 PM 41.2103 -113.5019 340° North 487 560 41,000  Level Salt Lake Center
Fri 09:03:22 PM 41.3736 -113.5575 346° North 499 574 41,000  Level Salt Lake Center
Fri 09:04:24 PM 41.5097 -113.6028 346° North 503 579 41,000  Level Salt Lake Center
Fri 09:05:25 PM 41.6453 -113.6494 346° North 502 578 41,000  Level Salt Lake Center
Fri 09:06:27 PM 41.7825 -113.6953 346° North 505 581 41,000 -293 Level Salt Lake Center
Fri 09:07:28 PM 41.9133 -113.7386 346° North 492 566 40,400 -1,805 Descending Salt Lake Center
Fri 09:08:30 PM 42.0439 -113.7853 345° North 485 558 37,300 -2,439 Descending Salt Lake Center
Fri 09:09:31 PM 42.1778 -113.8331 345° North 504 580 35,400 -2,164 Descending Salt Lake Center
Fri 09:10:32 PM 42.3103 -113.8772 346° North 493 567 32,900 -2,780 Descending Salt Lake Center
Fri 09:11:34 PM 42.4378 -113.9258 344° North 475 547 29,700 -3,268 Descending Salt Lake Center
Fri 09:12:35 PM 42.5803 -113.9753 346° North 438 504 26,200 -3,073 Descending Salt Lake Center
Fri 09:13:37 PM 42.6925 -114.0147 346° North 419 482 23,400 -2,634 Descending Salt Lake Center
Fri 09:14:38 PM 42.7981 -114.0528 345° North 396 456 20,800 -2,537 Descending Salt Lake Center
Fri 09:15:40 PM 42.9014 -114.0897 345° North 374 430 18,200 -2,488 Descending Salt Lake Center
Fri 09:16:41 PM 43.0033 -114.1269 345° North 361 415 15,700 -2,293 Descending Salt Lake Center
Fri 09:17:43 PM 43.0900 -114.1575 346° North 342 394 13,500 -2,146 Descending Salt Lake Center
Fri 09:18:44 PM 43.1828 -114.1914 345° North 332 382 11,300 -1,279 Descending Salt Lake Center
Fri 09:19:45 PM 43.2628 -114.2178 346° North 295 339 10,900 -341 Descending Salt Lake Center
Fri 09:20:47 PM 43.3278 -114.2189 359° North 266 306 10,600 -290 Descending Salt Lake Center
Fri 09:22:00 PM 43.4787 -114.2833 North  Level FlightAware Approximate
Fri 09:29:00 PM 43.5000 -114.2833 North  Level FlightAware Approximate
Fri 09:30:00 PM 43.5038 -114.2956 North  Level Estimated

Login

Don't have an account? Register now (free) for customized features, flight alerts, and more!